createdAt,value
2023-01-25T00:03:32.308Z,102196.81
2023-01-25T00:08:33.876Z,102184.25
2023-01-25T00:13:35.317Z,102187.50
2023-01-25T00:18:36.731Z,102174.97
2023-01-25T00:23:38.178Z,102173.22
2023-01-25T00:28:39.707Z,102165.56
2023-01-25T00:33:51.453Z,102166.38
2023-01-25T00:38:53.977Z,102161.28
2023-01-25T00:43:55.713Z,102161.28
2023-01-25T00:48:57.688Z,102151.09
2023-01-25T00:53:59.144Z,102149.34
2023-01-25T00:59:00.572Z,102139.19
2023-01-25T01:04:03.531Z,102135.91
2023-01-25T01:09:07.586Z,102135.09
2023-01-25T01:14:09.408Z,102125.84
2023-01-25T01:19:11.031Z,102124.13
2023-01-25T01:24:12.551Z,102125.75
2023-01-25T01:29:14.158Z,102132.50
2023-01-25T01:34:15.629Z,102143.38
2023-01-25T01:39:17.270Z,102142.44
2023-01-25T01:44:24.144Z,102135.66
2023-01-25T01:49:32.460Z,102137.38
2023-01-25T01:54:42.837Z,102129.06
2023-01-25T01:59:44.157Z,102136.72
2023-01-25T02:04:48.713Z,102126.53
2023-01-25T02:09:53.220Z,102127.41
2023-01-25T02:14:54.985Z,102116.53
2023-01-25T02:20:02.447Z,102121.56
2023-01-25T02:25:14.782Z,102119.84
2023-01-25T02:30:16.217Z,102119.84
2023-01-25T02:35:20.522Z,102118.13
2023-01-25T02:40:21.942Z,102108.06
2023-01-25T02:45:28.918Z,102106.41
2023-01-25T02:50:30.511Z,102091.22
2023-01-25T02:55:32.083Z,102085.47
2023-01-25T03:00:33.794Z,102080.44
2023-01-25T03:05:35.272Z,102083.84
2023-01-25T03:10:36.813Z,102090.50
2023-01-25T03:15:38.272Z,102082.16
2023-01-25T03:20:39.836Z,102082.22
2023-01-25T03:25:41.308Z,102070.34
2023-01-25T03:30:42.952Z,102070.31
2023-01-25T03:35:44.351Z,102067.84
2023-01-25T03:40:46.300Z,102073.63
2023-01-25T03:45:59.080Z,102073.59
2023-01-25T03:51:00.770Z,102066.09
2023-01-25T03:56:09.270Z,102067.72
2023-01-25T04:01:10.787Z,102068.50
2023-01-25T04:06:12.306Z,102075.09
2023-01-25T04:11:13.817Z,102076.72
2023-01-25T04:16:15.345Z,102064.13
2023-01-25T04:21:16.788Z,102067.47
2023-01-25T04:26:18.260Z,102066.47
2023-01-25T04:31:19.890Z,102063.81
2023-01-25T04:36:21.448Z,102060.38
2023-01-25T04:41:27.015Z,102056.13
2023-01-25T04:46:28.453Z,102052.84
2023-01-25T04:51:29.996Z,102054.53
2023-01-25T04:56:31.486Z,102046.97
2023-01-25T05:01:35.813Z,102050.31
2023-01-25T05:06:37.395Z,102047.56
2023-01-25T05:11:38.807Z,102036.75
2023-01-25T05:16:40.265Z,102042.53
2023-01-25T05:21:59.934Z,102042.47
2023-01-25T05:27:05.782Z,102052.50
2023-01-25T05:32:10.486Z,102039.88
2023-01-25T05:37:16.261Z,102045.69
2023-01-25T05:42:18.635Z,102034.03
2023-01-25T05:47:20.078Z,102039.94
2023-01-25T05:52:21.505Z,102043.03
2023-01-25T05:57:22.940Z,102043.75
2023-01-25T06:02:24.483Z,102043.50
2023-01-25T06:07:26.102Z,102036.75
2023-01-25T06:12:29.386Z,102035.94
2023-01-25T06:17:30.963Z,102034.91
2023-01-25T06:22:32.433Z,102018.00
2023-01-25T06:27:33.932Z,102014.81
2023-01-25T06:32:35.353Z,102008.94
2023-01-25T06:37:37.494Z,102009.81
2023-01-25T06:42:38.976Z,101993.19
2023-01-25T06:47:40.690Z,101997.38
2023-01-25T06:52:42.178Z,101995.88
2023-01-25T06:57:43.680Z,102004.25
2023-01-25T07:02:45.194Z,101999.09
2023-01-25T07:07:47.098Z,101999.03
2023-01-25T07:12:48.498Z,102003.16
2023-01-25T07:17:50.190Z,102003.97
2023-01-25T07:22:51.780Z,102005.78
2023-01-25T07:27:53.270Z,101999.94
2023-01-25T07:32:55.637Z,102001.59
2023-01-25T07:37:57.144Z,102008.34
2023-01-25T07:43:03.128Z,102000.00
2023-01-25T07:48:10.574Z,102005.84
2023-01-25T07:53:13.708Z,101997.00
2023-01-25T07:58:15.822Z,102006.06
2023-01-25T08:03:17.347Z,102000.13
2023-01-25T08:08:18.872Z,102003.31
2023-01-25T08:13:20.310Z,102003.25
2023-01-25T08:18:21.803Z,101998.34
2023-01-25T08:23:24.833Z,102002.66
2023-01-25T08:28:26.287Z,102004.25
2023-01-25T08:33:28.108Z,101998.47
2023-01-25T08:38:29.733Z,101993.50
2023-01-25T08:43:31.273Z,101984.53
2023-01-25T08:48:33.194Z,101982.88
2023-01-25T08:53:35.078Z,101983.88
2023-01-25T08:58:42.535Z,101982.13
2023-01-25T09:03:46.588Z,101975.50
2023-01-25T09:08:48.566Z,101973.00
2023-01-25T09:13:50.569Z,101966.34
2023-01-25T09:18:52.239Z,101974.88
2023-01-25T09:24:05.916Z,101973.19
2023-01-25T09:29:09.529Z,101970.78
2023-01-25T09:34:13.258Z,101967.47
2023-01-25T09:39:14.900Z,101963.25
2023-01-25T09:45:00.214Z,101954.94
2023-01-25T09:50:17.057Z,101970.22
2023-01-25T09:55:21.157Z,101955.25
2023-01-25T10:00:37.249Z,101960.56
2023-01-25T10:05:49.194Z,101955.50
2023-01-25T10:10:57.876Z,101953.94
2023-01-25T10:16:14.660Z,101956.53
2023-01-25T10:21:26.453Z,101945.66
2023-01-25T10:26:40.149Z,101944.13
2023-01-25T10:31:46.634Z,101942.53
2023-01-25T10:36:53.789Z,101931.69
2023-01-25T10:41:58.889Z,101932.56
2023-01-25T10:47:23.452Z,101924.97
2023-01-25T10:52:27.551Z,101915.06
2023-01-25T10:57:33.169Z,101916.03
2023-01-25T11:02:48.148Z,101904.34
2023-01-25T11:07:49.903Z,101901.72
2023-01-25T11:13:21.667Z,101899.44
2023-01-25T11:18:35.305Z,101884.31
2023-01-25T11:23:37.035Z,101879.25
2023-01-25T11:28:38.580Z,101875.03
2023-01-25T11:33:42.001Z,101864.88
2023-01-25T11:39:29.362Z,101850.69
2023-01-25T11:44:46.126Z,101833.97
2023-01-25T11:50:09.669Z,101828.13
2023-01-25T11:55:26.690Z,101818.81
2023-01-25T12:00:36.463Z,101806.34
2023-01-25T12:05:44.588Z,101794.56
2023-01-25T12:11:05.688Z,101782.00
2023-01-25T12:16:20.040Z,101767.69
2023-01-25T12:21:50.681Z,101762.53
2023-01-25T12:27:24.508Z,101752.53
2023-01-25T12:32:33.301Z,101744.81
2023-01-25T12:37:39.817Z,101740.34
2023-01-25T12:42:46.601Z,101727.88
2023-01-25T12:47:56.260Z,101719.47
2023-01-25T12:53:18.139Z,101719.47
2023-01-25T12:58:38.995Z,101711.91
2023-01-25T13:04:15.899Z,101703.44
2023-01-25T13:09:37.604Z,101695.09
2023-01-25T13:14:42.541Z,101685.16
2023-01-25T13:19:44.183Z,101682.63
2023-01-25T13:25:04.008Z,101675.03
2023-01-25T13:30:31.345Z,101670.94
2023-01-25T13:35:32.977Z,101659.91
2023-01-25T13:40:39.897Z,101658.19
2023-01-25T13:45:42.387Z,101643.00
2023-01-25T13:50:58.312Z,101635.28
2023-01-25T13:56:00.070Z,101640.34
2023-01-25T14:01:07.104Z,101645.41
2023-01-25T14:06:28.257Z,101638.63
2023-01-25T14:11:34.564Z,101641.84
2023-01-25T14:16:36.158Z,101639.41
2023-01-25T14:21:39.844Z,101630.91
2023-01-25T14:26:45.569Z,101632.56
2023-01-25T14:31:51.585Z,101620.84
2023-01-25T14:37:25.735Z,101620.84
2023-01-25T14:42:27.788Z,101607.22
2023-01-25T14:47:32.523Z,101598.00
2023-01-25T14:52:34.543Z,101594.63
2023-01-25T14:57:40.949Z,101595.50
2023-01-25T15:02:56.747Z,101585.50
2023-01-25T15:08:15.766Z,101577.88
2023-01-25T15:13:20.954Z,101563.59
2023-01-25T15:18:51.772Z,101564.44
2023-01-25T15:23:55.291Z,101560.25
2023-01-25T15:28:59.927Z,101562.59
2023-01-25T15:34:02.593Z,101553.31
2023-01-25T15:39:04.348Z,101543.25
2023-01-25T15:44:06.010Z,101547.28
2023-01-25T15:49:12.604Z,101541.41
2023-01-25T15:54:14.169Z,101530.53
2023-01-25T15:59:18.044Z,101516.22
2023-01-25T16:04:19.556Z,101512.78
2023-01-25T16:09:24.265Z,101512.81
2023-01-25T16:14:29.226Z,101499.50
2023-01-25T16:19:32.112Z,101501.16
2023-01-25T16:24:33.591Z,101503.66
2023-01-25T16:29:35.077Z,101502.00
2023-01-25T16:34:36.577Z,101497.81
2023-01-25T16:39:37.989Z,101497.78
2023-01-25T16:44:39.491Z,101492.72
2023-01-25T16:49:40.968Z,101497.72
2023-01-25T16:54:42.473Z,101492.69
2023-01-25T16:59:43.906Z,101496.94
2023-01-25T17:04:45.330Z,101497.63
2023-01-25T17:09:46.915Z,101484.91
2023-01-25T17:14:48.323Z,101483.19
2023-01-25T17:19:51.570Z,101489.09
2023-01-25T17:24:53.064Z,101489.19
2023-01-25T17:29:54.507Z,101478.34
2023-01-25T17:34:59.057Z,101466.56
2023-01-25T17:40:00.576Z,101461.53
2023-01-25T17:45:02.244Z,101459.00
2023-01-25T17:50:04.079Z,101461.41
2023-01-25T17:55:06.108Z,101460.56
2023-01-25T18:00:11.837Z,101453.00
2023-01-25T18:05:14.460Z,101438.00
2023-01-25T18:10:16.030Z,101445.53
2023-01-25T18:15:20.955Z,101432.97
2023-01-25T18:20:22.422Z,101437.94
2023-01-25T18:25:35.558Z,101428.75
2023-01-25T18:30:44.359Z,101428.00
2023-01-25T18:35:49.223Z,101420.56
2023-01-25T18:40:50.842Z,101413.94
2023-01-25T18:45:56.413Z,101408.13
2023-01-25T18:51:12.860Z,101403.03
2023-01-25T18:56:16.838Z,101393.75
2023-01-25T19:01:20.948Z,101398.72
2023-01-25T19:06:24.756Z,101392.78
2023-01-25T19:11:26.721Z,101382.72
2023-01-25T19:16:28.517Z,101380.94
2023-01-25T19:21:30.258Z,101383.44
2023-01-25T19:26:31.689Z,101382.59
2023-01-25T19:31:33.860Z,101374.19
2023-01-25T19:36:37.866Z,101373.34
2023-01-25T19:41:39.433Z,101378.25
2023-01-25T19:46:42.173Z,101370.66
2023-01-25T19:51:48.772Z,101355.56
2023-01-25T19:56:50.346Z,101360.47
2023-01-25T20:01:52.275Z,101362.94
2023-01-25T20:06:54.024Z,101357.88
2023-01-25T20:11:56.918Z,101351.16
2023-01-25T20:16:58.393Z,101349.53
2023-01-25T20:22:00.516Z,101351.13
2023-01-25T20:27:04.263Z,101343.63
2023-01-25T20:32:06.300Z,101329.41
2023-01-25T20:37:07.924Z,101315.16
2023-01-25T20:42:09.523Z,101319.34
2023-01-25T20:47:10.995Z,101310.97
2023-01-25T20:52:13.806Z,101308.50
2023-01-25T20:57:15.398Z,101307.56
2023-01-25T21:02:16.833Z,101300.88
2023-01-25T21:07:18.321Z,101291.72
2023-01-25T21:12:19.759Z,101281.69
2023-01-25T21:17:21.280Z,101277.53
2023-01-25T21:22:22.808Z,101271.66
2023-01-25T21:27:25.082Z,101278.31
2023-01-25T21:32:26.522Z,101264.88
2023-01-25T21:37:29.259Z,101268.22
2023-01-25T21:42:32.397Z,101260.66
2023-01-25T21:47:34.007Z,101272.34
2023-01-25T21:52:36.406Z,101262.31
2023-01-25T21:57:40.963Z,101254.69
2023-01-25T22:02:43.653Z,101251.31
2023-01-25T22:07:45.152Z,101250.34
2023-01-25T22:12:50.558Z,101250.41
2023-01-25T22:17:52.140Z,101253.75
2023-01-25T22:22:53.505Z,101246.13
2023-01-25T22:28:00.158Z,101249.44
2023-01-25T22:33:01.564Z,101248.59
2023-01-25T22:38:02.951Z,101241.66
2023-01-25T22:43:04.421Z,101241.69
2023-01-25T22:48:06.078Z,101237.56
2023-01-25T22:53:07.455Z,101240.06
2023-01-25T22:58:09.950Z,101230.72
2023-01-25T23:03:11.330Z,101223.91
2023-01-25T23:08:12.760Z,101224.66
2023-01-25T23:13:14.200Z,101216.22
2023-01-25T23:18:34.452Z,101200.25
2023-01-25T23:23:35.927Z,101195.16
2023-01-25T23:28:37.379Z,101178.38
2023-01-25T23:33:38.802Z,101179.22
2023-01-25T23:38:41.206Z,101166.03
2023-01-25T23:43:43.000Z,101157.75
2023-01-25T23:48:45.487Z,101154.38
2023-01-25T23:53:47.520Z,101139.34
2023-01-25T23:58:49.337Z,101136.13
